sensor_id;sensor_type;location;lat;lon;timestamp;temperature;humidity
27188;DHT22;14708;50.872;5.306;2024-01-27T00:01:35;22.20;50.70
27188;DHT22;14708;50.872;5.306;2024-01-27T00:04:01;22.20;50.70
27188;DHT22;14708;50.872;5.306;2024-01-27T00:06:28;22.20;50.80
27188;DHT22;14708;50.872;5.306;2024-01-27T00:08:55;22.20;50.80
27188;DHT22;14708;50.872;5.306;2024-01-27T00:11:21;22.20;50.80
27188;DHT22;14708;50.872;5.306;2024-01-27T00:13:50;22.10;50.80
27188;DHT22;14708;50.872;5.306;2024-01-27T00:16:16;22.10;50.80
27188;DHT22;14708;50.872;5.306;2024-01-27T00:18:42;22.10;50.80
27188;DHT22;14708;50.872;5.306;2024-01-27T00:21:08;22.10;50.90
27188;DHT22;14708;50.872;5.306;2024-01-27T00:23:34;22.10;51.00
27188;DHT22;14708;50.872;5.306;2024-01-27T00:26:01;22.00;50.80
27188;DHT22;14708;50.872;5.306;2024-01-27T00:28:27;22.00;50.80
27188;DHT22;14708;50.872;5.306;2024-01-27T00:30:54;22.00;50.90
27188;DHT22;14708;50.872;5.306;2024-01-27T00:33:21;22.00;50.80
27188;DHT22;14708;50.872;5.306;2024-01-27T00:35:46;22.00;50.90
27188;DHT22;14708;50.872;5.306;2024-01-27T00:38:12;21.90;50.80
27188;DHT22;14708;50.872;5.306;2024-01-27T00:40:38;21.90;51.00
27188;DHT22;14708;50.872;5.306;2024-01-27T00:43:04;21.90;50.90
27188;DHT22;14708;50.872;5.306;2024-01-27T00:45:30;21.90;51.00
27188;DHT22;14708;50.872;5.306;2024-01-27T00:47:58;21.90;51.00
27188;DHT22;14708;50.872;5.306;2024-01-27T00:50:25;21.80;51.00
27188;DHT22;14708;50.872;5.306;2024-01-27T00:52:50;21.80;51.00
27188;DHT22;14708;50.872;5.306;2024-01-27T00:55:16;21.80;51.00
27188;DHT22;14708;50.872;5.306;2024-01-27T00:57:42;21.80;51.00
27188;DHT22;14708;50.872;5.306;2024-01-27T01:00:09;21.70;51.00
27188;DHT22;14708;50.872;5.306;2024-01-27T01:02:35;21.80;51.00
27188;DHT22;14708;50.872;5.306;2024-01-27T01:05:01;21.70;50.90
27188;DHT22;14708;50.872;5.306;2024-01-27T01:07:29;21.70;50.90
27188;DHT22;14708;50.872;5.306;2024-01-27T01:09:55;21.70;51.00
27188;DHT22;14708;50.872;5.306;2024-01-27T01:12:21;21.70;50.90
27188;DHT22;14708;50.872;5.306;2024-01-27T01:14:47;21.60;50.90
27188;DHT22;14708;50.872;5.306;2024-01-27T01:17:13;21.60;50.90
27188;DHT22;14708;50.872;5.306;2024-01-27T01:19:40;21.60;50.90
27188;DHT22;14708;50.872;5.306;2024-01-27T01:22:07;21.60;51.00
27188;DHT22;14708;50.872;5.306;2024-01-27T01:24:33;21.60;50.90
27188;DHT22;14708;50.872;5.306;2024-01-27T01:26:59;21.60;51.00
27188;DHT22;14708;50.872;5.306;2024-01-27T01:29:25;21.60;51.10
27188;DHT22;14708;50.872;5.306;2024-01-27T01:31:51;21.50;51.10
27188;DHT22;14708;50.872;5.306;2024-01-27T01:34:17;21.50;51.00
27188;DHT22;14708;50.872;5.306;2024-01-27T01:36:43;21.50;50.90
27188;DHT22;14708;50.872;5.306;2024-01-27T01:39:10;21.50;51.10
27188;DHT22;14708;50.872;5.306;2024-01-27T01:41:36;21.50;51.00
27188;DHT22;14708;50.872;5.306;2024-01-27T01:44:03;21.50;51.00
27188;DHT22;14708;50.872;5.306;2024-01-27T01:46:29;21.50;51.10
27188;DHT22;14708;50.872;5.306;2024-01-27T01:48:56;21.40;50.90
27188;DHT22;14708;50.872;5.306;2024-01-27T01:51:23;21.40;51.00
27188;DHT22;14708;50.872;5.306;2024-01-27T01:53:49;21.40;51.00
27188;DHT22;14708;50.872;5.306;2024-01-27T01:56:18;21.40;51.00
27188;DHT22;14708;50.872;5.306;2024-01-27T01:58:45;21.30;51.00
27188;DHT22;14708;50.872;5.306;2024-01-27T02:01:11;21.40;51.00
27188;DHT22;14708;50.872;5.306;2024-01-27T02:03:36;21.30;50.90
27188;DHT22;14708;50.872;5.306;2024-01-27T02:06:03;21.30;50.90
27188;DHT22;14708;50.872;5.306;2024-01-27T02:08:29;21.30;50.90
27188;DHT22;14708;50.872;5.306;2024-01-27T02:10:56;21.30;51.00
27188;DHT22;14708;50.872;5.306;2024-01-27T02:13:23;21.30;51.10
27188;DHT22;14708;50.872;5.306;2024-01-27T02:15:50;21.30;51.20
27188;DHT22;14708;50.872;5.306;2024-01-27T02:18:16;21.20;50.90
27188;DHT22;14708;50.872;5.306;2024-01-27T02:20:42;21.20;51.00
27188;DHT22;14708;50.872;5.306;2024-01-27T02:23:08;21.20;51.20
27188;DHT22;14708;50.872;5.306;2024-01-27T02:25:35;21.20;50.90
27188;DHT22;14708;50.872;5.306;2024-01-27T02:28:01;21.20;51.00
27188;DHT22;14708;50.872;5.306;2024-01-27T02:30:28;21.20;51.00
27188;DHT22;14708;50.872;5.306;2024-01-27T02:32:57;21.10;50.90
27188;DHT22;14708;50.872;5.306;2024-01-27T02:35:24;21.20;51.20
27188;DHT22;14708;50.872;5.306;2024-01-27T02:37:50;21.10;51.00
27188;DHT22;14708;50.872;5.306;2024-01-27T02:40:16;21.10;50.80
27188;DHT22;14708;50.872;5.306;2024-01-27T02:42:42;21.10;50.80
27188;DHT22;14708;50.872;5.306;2024-01-27T02:45:09;21.10;50.80
27188;DHT22;14708;50.872;5.306;2024-01-27T02:47:35;21.10;50.90
27188;DHT22;14708;50.872;5.306;2024-01-27T02:50:01;21.10;51.00
27188;DHT22;14708;50.872;5.306;2024-01-27T02:52:26;21.10;50.90
27188;DHT22;14708;50.872;5.306;2024-01-27T02:54:53;21.10;50.90
27188;DHT22;14708;50.872;5.306;2024-01-27T02:57:19;21.00;50.80
27188;DHT22;14708;50.872;5.306;2024-01-27T02:59:46;21.00;50.80
27188;DHT22;14708;50.872;5.306;2024-01-27T03:02:12;21.00;50.80
27188;DHT22;14708;50.872;5.306;2024-01-27T03:04:38;21.00;50.80
27188;DHT22;14708;50.872;5.306;2024-01-27T03:07:04;21.00;50.90
27188;DHT22;14708;50.872;5.306;2024-01-27T03:09:30;21.00;50.80
27188;DHT22;14708;50.872;5.306;2024-01-27T03:11:56;21.00;50.80
27188;DHT22;14708;50.872;5.306;2024-01-27T03:14:23;21.00;50.80
27188;DHT22;14708;50.872;5.306;2024-01-27T03:16:49;21.00;50.80
27188;DHT22;14708;50.872;5.306;2024-01-27T03:19:15;21.00;50.80
27188;DHT22;14708;50.872;5.306;2024-01-27T03:21:41;20.90;50.90
27188;DHT22;14708;50.872;5.306;2024-01-27T03:24:07;20.90;50.80
27188;DHT22;14708;50.872;5.306;2024-01-27T03:26:33;20.90;50.90
27188;DHT22;14708;50.872;5.306;2024-01-27T03:28:59;20.90;50.70
27188;DHT22;14708;50.872;5.306;2024-01-27T03:31:33;20.90;50.60
27188;DHT22;14708;50.872;5.306;2024-01-27T03:34:02;20.90;50.60
27188;DHT22;14708;50.872;5.306;2024-01-27T03:36:28;20.90;50.60
27188;DHT22;14708;50.872;5.306;2024-01-27T03:38:56;20.80;50.60
27188;DHT22;14708;50.872;5.306;2024-01-27T03:41:22;20.80;50.70
27188;DHT22;14708;50.872;5.306;2024-01-27T03:43:47;20.80;50.60
27188;DHT22;14708;50.872;5.306;2024-01-27T03:46:13;20.80;50.80
27188;DHT22;14708;50.872;5.306;2024-01-27T03:48:39;20.80;50.80
27188;DHT22;14708;50.872;5.306;2024-01-27T03:51:05;20.80;50.80
27188;DHT22;14708;50.872;5.306;2024-01-27T03:53:31;20.80;50.70
27188;DHT22;14708;50.872;5.306;2024-01-27T03:55:58;20.80;50.70
27188;DHT22;14708;50.872;5.306;2024-01-27T03:58:30;20.70;50.70
27188;DHT22;14708;50.872;5.306;2024-01-27T04:00:58;20.80;50.80
27188;DHT22;14708;50.872;5.306;2024-01-27T04:03:24;20.70;50.70
27188;DHT22;14708;50.872;5.306;2024-01-27T04:05:50;20.70;50.70
27188;DHT22;14708;50.872;5.306;2024-01-27T04:08:16;20.70;50.70
27188;DHT22;14708;50.872;5.306;2024-01-27T04:10:42;20.70;50.70
27188;DHT22;14708;50.872;5.306;2024-01-27T04:13:08;20.70;50.80
27188;DHT22;14708;50.872;5.306;2024-01-27T04:15:34;20.70;50.80
27188;DHT22;14708;50.872;5.306;2024-01-27T04:18:04;20.70;50.60
27188;DHT22;14708;50.872;5.306;2024-01-27T04:20:31;20.70;50.50
27188;DHT22;14708;50.872;5.306;2024-01-27T04:22:58;20.60;50.60
27188;DHT22;14708;50.872;5.306;2024-01-27T04:25:23;20.70;50.60
27188;DHT22;14708;50.872;5.306;2024-01-27T04:27:49;20.70;50.70
27188;DHT22;14708;50.872;5.306;2024-01-27T04:30:15;20.60;50.60
27188;DHT22;14708;50.872;5.306;2024-01-27T04:32:41;20.60;50.60
27188;DHT22;14708;50.872;5.306;2024-01-27T04:35:10;20.60;50.60
27188;DHT22;14708;50.872;5.306;2024-01-27T04:37:37;20.60;50.60
27188;DHT22;14708;50.872;5.306;2024-01-27T04:40:06;20.60;50.70
27188;DHT22;14708;50.872;5.306;2024-01-27T04:42:37;20.60;50.50
27188;DHT22;14708;50.872;5.306;2024-01-27T04:45:04;20.60;50.60
27188;DHT22;14708;50.872;5.306;2024-01-27T04:47:30;20.60;50.50
27188;DHT22;14708;50.872;5.306;2024-01-27T04:49:56;20.60;50.50
27188;DHT22;14708;50.872;5.306;2024-01-27T04:52:25;20.50;50.50
27188;DHT22;14708;50.872;5.306;2024-01-27T04:54:52;20.50;50.60
27188;DHT22;14708;50.872;5.306;2024-01-27T04:57:18;20.50;50.80
27188;DHT22;14708;50.872;5.306;2024-01-27T04:59:44;20.50;50.50
27188;DHT22;14708;50.872;5.306;2024-01-27T05:02:10;20.50;50.50
27188;DHT22;14708;50.872;5.306;2024-01-27T05:04:37;20.50;50.70
27188;DHT22;14708;50.872;5.306;2024-01-27T05:07:04;20.50;50.60
27188;DHT22;14708;50.872;5.306;2024-01-27T05:09:29;20.50;50.50
27188;DHT22;14708;50.872;5.306;2024-01-27T05:11:55;20.50;50.60
27188;DHT22;14708;50.872;5.306;2024-01-27T05:14:21;20.50;50.60
27188;DHT22;14708;50.872;5.306;2024-01-27T05:16:46;20.50;50.60
27188;DHT22;14708;50.872;5.306;2024-01-27T05:19:12;20.40;50.60
27188;DHT22;14708;50.872;5.306;2024-01-27T05:21:38;20.40;50.50
27188;DHT22;14708;50.872;5.306;2024-01-27T05:24:04;20.40;50.60
27188;DHT22;14708;50.872;5.306;2024-01-27T05:26:30;20.40;50.70
27188;DHT22;14708;50.872;5.306;2024-01-27T05:28:56;20.40;50.60
27188;DHT22;14708;50.872;5.306;2024-01-27T05:31:21;20.40;50.60
27188;DHT22;14708;50.872;5.306;2024-01-27T05:33:48;20.40;50.60
27188;DHT22;14708;50.872;5.306;2024-01-27T05:36:15;20.40;50.60
27188;DHT22;14708;50.872;5.306;2024-01-27T05:38:41;20.40;50.60
27188;DHT22;14708;50.872;5.306;2024-01-27T05:41:07;20.40;50.50
27188;DHT22;14708;50.872;5.306;2024-01-27T05:43:35;20.30;50.50
27188;DHT22;14708;50.872;5.306;2024-01-27T05:46:00;20.30;50.40
27188;DHT22;14708;50.872;5.306;2024-01-27T05:48:26;20.30;50.50
27188;DHT22;14708;50.872;5.306;2024-01-27T05:50:59;20.30;50.50
27188;DHT22;14708;50.872;5.306;2024-01-27T05:53:25;20.30;50.50
27188;DHT22;14708;50.872;5.306;2024-01-27T05:55:51;20.30;50.40
27188;DHT22;14708;50.872;5.306;2024-01-27T05:58:18;20.30;50.40
27188;DHT22;14708;50.872;5.306;2024-01-27T06:00:47;20.30;50.30
27188;DHT22;14708;50.872;5.306;2024-01-27T06:03:13;20.30;50.40
27188;DHT22;14708;50.872;5.306;2024-01-27T06:05:39;20.30;50.50
27188;DHT22;14708;50.872;5.306;2024-01-27T06:08:06;20.20;50.40
27188;DHT22;14708;50.872;5.306;2024-01-27T06:10:32;20.20;50.30
27188;DHT22;14708;50.872;5.306;2024-01-27T06:13:00;20.20;50.40
27188;DHT22;14708;50.872;5.306;2024-01-27T06:15:26;20.30;50.40
27188;DHT22;14708;50.872;5.306;2024-01-27T06:17:52;20.30;50.50
27188;DHT22;14708;50.872;5.306;2024-01-27T06:20:19;20.30;50.50
27188;DHT22;14708;50.872;5.306;2024-01-27T06:22:44;20.20;50.40
27188;DHT22;14708;50.872;5.306;2024-01-27T06:25:10;20.20;50.50
27188;DHT22;14708;50.872;5.306;2024-01-27T06:27:36;20.20;50.60
27188;DHT22;14708;50.872;5.306;2024-01-27T06:30:04;20.20;50.40
27188;DHT22;14708;50.872;5.306;2024-01-27T06:32:31;20.10;50.30
27188;DHT22;14708;50.872;5.306;2024-01-27T06:34:56;20.10;49.80
27188;DHT22;14708;50.872;5.306;2024-01-27T06:37:22;20.10;50.30
27188;DHT22;14708;50.872;5.306;2024-01-27T06:39:48;20.20;50.20
27188;DHT22;14708;50.872;5.306;2024-01-27T06:42:13;20.20;50.20
27188;DHT22;14708;50.872;5.306;2024-01-27T06:44:40;20.20;50.40
27188;DHT22;14708;50.872;5.306;2024-01-27T06:47:06;20.20;50.70
27188;DHT22;14708;50.872;5.306;2024-01-27T06:49:31;20.20;50.70
27188;DHT22;14708;50.872;5.306;2024-01-27T06:51:58;20.20;50.80
27188;DHT22;14708;50.872;5.306;2024-01-27T06:54:24;20.20;50.50
27188;DHT22;14708;50.872;5.306;2024-01-27T06:56:50;20.20;50.60
27188;DHT22;14708;50.872;5.306;2024-01-27T06:59:16;20.20;50.60
27188;DHT22;14708;50.872;5.306;2024-01-27T07:01:46;20.30;50.50
27188;DHT22;14708;50.872;5.306;2024-01-27T07:04:14;20.30;50.40
27188;DHT22;14708;50.872;5.306;2024-01-27T07:06:40;20.30;50.30
27188;DHT22;14708;50.872;5.306;2024-01-27T07:09:07;20.40;50.30
27188;DHT22;14708;50.872;5.306;2024-01-27T07:11:33;20.40;50.20
27188;DHT22;14708;50.872;5.306;2024-01-27T07:13:59;20.40;50.60
27188;DHT22;14708;50.872;5.306;2024-01-27T07:16:25;20.50;50.10
27188;DHT22;14708;50.872;5.306;2024-01-27T07:18:51;20.50;50.00
27188;DHT22;14708;50.872;5.306;2024-01-27T07:21:17;20.50;50.00
27188;DHT22;14708;50.872;5.306;2024-01-27T07:23:43;20.50;50.00
27188;DHT22;14708;50.872;5.306;2024-01-27T07:26:10;20.50;49.80
27188;DHT22;14708;50.872;5.306;2024-01-27T07:28:36;20.50;49.80
27188;DHT22;14708;50.872;5.306;2024-01-27T07:31:03;20.60;49.90
27188;DHT22;14708;50.872;5.306;2024-01-27T07:33:29;20.50;49.80
27188;DHT22;14708;50.872;5.306;2024-01-27T07:35:54;20.50;49.70
27188;DHT22;14708;50.872;5.306;2024-01-27T07:38:21;20.50;49.60
27188;DHT22;14708;50.872;5.306;2024-01-27T07:40:47;20.50;49.60
27188;DHT22;14708;50.872;5.306;2024-01-27T07:43:13;20.50;50.40
27188;DHT22;14708;50.872;5.306;2024-01-27T07:45:39;20.50;49.80
27188;DHT22;14708;50.872;5.306;2024-01-27T07:48:05;20.50;49.70
27188;DHT22;14708;50.872;5.306;2024-01-27T07:50:34;20.60;49.50
27188;DHT22;14708;50.872;5.306;2024-01-27T07:53:01;20.60;49.80
27188;DHT22;14708;50.872;5.306;2024-01-27T07:55:27;20.70;49.90
27188;DHT22;14708;50.872;5.306;2024-01-27T07:57:53;20.70;50.00
27188;DHT22;14708;50.872;5.306;2024-01-27T08:00:19;20.80;50.00
27188;DHT22;14708;50.872;5.306;2024-01-27T08:02:45;20.90;49.90
27188;DHT22;14708;50.872;5.306;2024-01-27T08:05:11;21.00;49.80
27188;DHT22;14708;50.872;5.306;2024-01-27T08:07:36;21.10;49.70
27188;DHT22;14708;50.872;5.306;2024-01-27T08:10:02;21.20;49.60
27188;DHT22;14708;50.872;5.306;2024-01-27T08:12:30;21.20;49.50
27188;DHT22;14708;50.872;5.306;2024-01-27T08:14:56;21.30;49.30
27188;DHT22;14708;50.872;5.306;2024-01-27T08:17:21;21.30;49.20
27188;DHT22;14708;50.872;5.306;2024-01-27T08:19:48;21.40;49.00
27188;DHT22;14708;50.872;5.306;2024-01-27T08:22:13;21.50;49.10
27188;DHT22;14708;50.872;5.306;2024-01-27T08:24:39;21.60;48.90
27188;DHT22;14708;50.872;5.306;2024-01-27T08:27:05;21.60;49.00
27188;DHT22;14708;50.872;5.306;2024-01-27T08:29:31;21.70;48.90
27188;DHT22;14708;50.872;5.306;2024-01-27T08:31:58;21.80;49.00
27188;DHT22;14708;50.872;5.306;2024-01-27T08:34:24;21.80;49.10
27188;DHT22;14708;50.872;5.306;2024-01-27T08:36:49;21.90;48.50
27188;DHT22;14708;50.872;5.306;2024-01-27T08:39:15;21.90;48.20
27188;DHT22;14708;50.872;5.306;2024-01-27T08:41:41;22.00;48.40
27188;DHT22;14708;50.872;5.306;2024-01-27T08:44:07;22.00;48.50
27188;DHT22;14708;50.872;5.306;2024-01-27T08:46:32;22.10;48.60
27188;DHT22;14708;50.872;5.306;2024-01-27T08:48:59;22.10;48.80
27188;DHT22;14708;50.872;5.306;2024-01-27T08:51:26;22.20;48.80
27188;DHT22;14708;50.872;5.306;2024-01-27T08:53:51;22.20;48.90
27188;DHT22;14708;50.872;5.306;2024-01-27T08:56:18;22.20;49.00
27188;DHT22;14708;50.872;5.306;2024-01-27T08:58:44;22.20;48.30
27188;DHT22;14708;50.872;5.306;2024-01-27T09:01:10;22.30;47.80
27188;DHT22;14708;50.872;5.306;2024-01-27T09:03:41;22.30;46.90
27188;DHT22;14708;50.872;5.306;2024-01-27T09:06:07;22.20;46.10
27188;DHT22;14708;50.872;5.306;2024-01-27T09:08:34;22.30;45.60
27188;DHT22;14708;50.872;5.306;2024-01-27T09:11:02;22.30;45.40
27188;DHT22;14708;50.872;5.306;2024-01-27T09:13:28;22.40;45.00
27188;DHT22;14708;50.872;5.306;2024-01-27T09:15:54;22.40;44.60
27188;DHT22;14708;50.872;5.306;2024-01-27T09:18:21;22.40;44.40
27188;DHT22;14708;50.872;5.306;2024-01-27T09:20:48;22.50;44.00
27188;DHT22;14708;50.872;5.306;2024-01-27T09:23:14;22.50;43.80
27188;DHT22;14708;50.872;5.306;2024-01-27T09:25:39;22.50;43.20
27188;DHT22;14708;50.872;5.306;2024-01-27T09:28:05;22.50;43.00
27188;DHT22;14708;50.872;5.306;2024-01-27T09:30:31;22.50;42.80
27188;DHT22;14708;50.872;5.306;2024-01-27T09:32:57;22.50;42.30
27188;DHT22;14708;50.872;5.306;2024-01-27T09:35:22;22.50;42.10
27188;DHT22;14708;50.872;5.306;2024-01-27T09:37:48;22.50;41.50
27188;DHT22;14708;50.872;5.306;2024-01-27T09:40:14;22.60;41.50
27188;DHT22;14708;50.872;5.306;2024-01-27T09:42:48;22.60;41.10
27188;DHT22;14708;50.872;5.306;2024-01-27T09:45:15;22.60;40.70
27188;DHT22;14708;50.872;5.306;2024-01-27T09:47:42;22.60;40.00
27188;DHT22;14708;50.872;5.306;2024-01-27T09:50:11;22.60;40.30
27188;DHT22;14708;50.872;5.306;2024-01-27T09:52:37;22.60;39.90
27188;DHT22;14708;50.872;5.306;2024-01-27T09:55:04;22.60;39.90
27188;DHT22;14708;50.872;5.306;2024-01-27T09:57:30;22.60;39.40
27188;DHT22;14708;50.872;5.306;2024-01-27T09:59:56;22.60;39.90
27188;DHT22;14708;50.872;5.306;2024-01-27T10:02:24;22.60;40.30
27188;DHT22;14708;50.872;5.306;2024-01-27T10:04:51;22.60;40.40
27188;DHT22;14708;50.872;5.306;2024-01-27T10:07:17;22.60;40.50
27188;DHT22;14708;50.872;5.306;2024-01-27T10:09:43;22.60;40.50
27188;DHT22;14708;50.872;5.306;2024-01-27T10:12:10;22.70;40.70
27188;DHT22;14708;50.872;5.306;2024-01-27T10:14:40;22.70;41.20
27188;DHT22;14708;50.872;5.306;2024-01-27T10:17:08;22.60;41.50
27188;DHT22;14708;50.872;5.306;2024-01-27T10:19:34;22.70;42.10
27188;DHT22;14708;50.872;5.306;2024-01-27T10:22:01;22.60;41.60
27188;DHT22;14708;50.872;5.306;2024-01-27T10:24:28;22.60;41.80
27188;DHT22;14708;50.872;5.306;2024-01-27T10:27:03;22.60;41.90
27188;DHT22;14708;50.872;5.306;2024-01-27T10:29:32;22.70;42.10
27188;DHT22;14708;50.872;5.306;2024-01-27T10:32:09;22.70;42.30
27188;DHT22;14708;50.872;5.306;2024-01-27T10:34:35;22.70;42.50
27188;DHT22;14708;50.872;5.306;2024-01-27T10:37:01;22.70;42.60
27188;DHT22;14708;50.872;5.306;2024-01-27T10:39:27;22.60;42.70
27188;DHT22;14708;50.872;5.306;2024-01-27T10:41:53;22.70;42.80
27188;DHT22;14708;50.872;5.306;2024-01-27T10:44:21;22.70;42.90
27188;DHT22;14708;50.872;5.306;2024-01-27T10:46:48;22.70;43.00
27188;DHT22;14708;50.872;5.306;2024-01-27T10:49:17;22.70;43.00
27188;DHT22;14708;50.872;5.306;2024-01-27T10:51:53;22.70;43.10
27188;DHT22;14708;50.872;5.306;2024-01-27T10:54:26;22.70;43.20
27188;DHT22;14708;50.872;5.306;2024-01-27T10:56:56;22.70;43.40
27188;DHT22;14708;50.872;5.306;2024-01-27T10:59:23;22.70;43.40
27188;DHT22;14708;50.872;5.306;2024-01-27T11:01:52;22.70;43.50
27188;DHT22;14708;50.872;5.306;2024-01-27T11:04:20;22.80;43.40
27188;DHT22;14708;50.872;5.306;2024-01-27T11:06:48;22.70;43.30
27188;DHT22;14708;50.872;5.306;2024-01-27T11:09:15;22.80;43.10
27188;DHT22;14708;50.872;5.306;2024-01-27T11:11:42;22.80;42.70
27188;DHT22;14708;50.872;5.306;2024-01-27T11:14:09;22.80;43.00
27188;DHT22;14708;50.872;5.306;2024-01-27T11:16:36;22.80;42.90
27188;DHT22;14708;50.872;5.306;2024-01-27T11:19:10;22.80;42.90
27188;DHT22;14708;50.872;5.306;2024-01-27T11:21:36;22.80;42.90
27188;DHT22;14708;50.872;5.306;2024-01-27T11:24:15;22.80;42.50
27188;DHT22;14708;50.872;5.306;2024-01-27T11:26:41;22.90;43.00
27188;DHT22;14708;50.872;5.306;2024-01-27T11:29:08;22.90;43.70
27188;DHT22;14708;50.872;5.306;2024-01-27T11:31:40;22.80;44.20
27188;DHT22;14708;50.872;5.306;2024-01-27T11:34:10;22.80;44.50
27188;DHT22;14708;50.872;5.306;2024-01-27T11:36:38;22.80;45.30
27188;DHT22;14708;50.872;5.306;2024-01-27T11:39:04;22.80;45.80
27188;DHT22;14708;50.872;5.306;2024-01-27T11:41:30;22.80;46.10
27188;DHT22;14708;50.872;5.306;2024-01-27T11:43:58;22.80;46.50
27188;DHT22;14708;50.872;5.306;2024-01-27T11:46:26;22.80;46.80
27188;DHT22;14708;50.872;5.306;2024-01-27T11:48:53;22.80;47.10
27188;DHT22;14708;50.872;5.306;2024-01-27T11:51:19;22.80;47.30
27188;DHT22;14708;50.872;5.306;2024-01-27T11:53:45;22.90;47.30
27188;DHT22;14708;50.872;5.306;2024-01-27T11:56:12;22.80;47.30
27188;DHT22;14708;50.872;5.306;2024-01-27T11:58:37;22.80;47.20
27188;DHT22;14708;50.872;5.306;2024-01-27T12:01:04;22.80;47.40
27188;DHT22;14708;50.872;5.306;2024-01-27T12:03:30;22.80;46.30
27188;DHT22;14708;50.872;5.306;2024-01-27T12:05:55;22.80;45.80
27188;DHT22;14708;50.872;5.306;2024-01-27T12:08:21;22.80;46.50
27188;DHT22;14708;50.872;5.306;2024-01-27T12:10:48;22.80;46.60
27188;DHT22;14708;50.872;5.306;2024-01-27T12:13:15;22.80;47.40
27188;DHT22;14708;50.872;5.306;2024-01-27T12:15:41;22.80;47.00
27188;DHT22;14708;50.872;5.306;2024-01-27T12:18:08;22.80;46.90
27188;DHT22;14708;50.872;5.306;2024-01-27T12:20:34;22.80;47.00
27188;DHT22;14708;50.872;5.306;2024-01-27T12:23:07;22.80;47.10
27188;DHT22;14708;50.872;5.306;2024-01-27T12:25:33;22.80;47.10
27188;DHT22;14708;50.872;5.306;2024-01-27T12:28:05;22.90;46.80
27188;DHT22;14708;50.872;5.306;2024-01-27T12:30:33;22.90;46.50
27188;DHT22;14708;50.872;5.306;2024-01-27T12:33:00;22.90;46.50
27188;DHT22;14708;50.872;5.306;2024-01-27T12:35:26;22.80;46.60
27188;DHT22;14708;50.872;5.306;2024-01-27T12:37:52;22.90;46.90
27188;DHT22;14708;50.872;5.306;2024-01-27T12:40:20;22.90;47.00
27188;DHT22;14708;50.872;5.306;2024-01-27T12:42:47;22.80;47.10
27188;DHT22;14708;50.872;5.306;2024-01-27T12:45:13;22.80;47.30
27188;DHT22;14708;50.872;5.306;2024-01-27T12:47:39;22.80;47.40
27188;DHT22;14708;50.872;5.306;2024-01-27T12:50:05;22.80;47.70
27188;DHT22;14708;50.872;5.306;2024-01-27T12:52:32;22.80;48.00
27188;DHT22;14708;50.872;5.306;2024-01-27T12:54:59;22.90;48.30
27188;DHT22;14708;50.872;5.306;2024-01-27T12:57:26;22.80;48.20
27188;DHT22;14708;50.872;5.306;2024-01-27T12:59:53;22.90;48.30
27188;DHT22;14708;50.872;5.306;2024-01-27T13:02:18;22.80;48.30
27188;DHT22;14708;50.872;5.306;2024-01-27T13:04:44;22.90;48.30
27188;DHT22;14708;50.872;5.306;2024-01-27T13:07:10;22.90;48.10
27188;DHT22;14708;50.872;5.306;2024-01-27T13:09:36;22.90;47.60
27188;DHT22;14708;50.872;5.306;2024-01-27T13:12:03;22.90;47.40
27188;DHT22;14708;50.872;5.306;2024-01-27T13:14:29;22.90;47.30
27188;DHT22;14708;50.872;5.306;2024-01-27T13:16:55;22.80;44.50
27188;DHT22;14708;50.872;5.306;2024-01-27T13:19:22;22.80;44.10
27188;DHT22;14708;50.872;5.306;2024-01-27T13:21:48;22.80;44.20
27188;DHT22;14708;50.872;5.306;2024-01-27T13:24:14;22.80;44.40
27188;DHT22;14708;50.872;5.306;2024-01-27T13:26:41;22.80;45.60
27188;DHT22;14708;50.872;5.306;2024-01-27T13:29:07;22.80;45.70
27188;DHT22;14708;50.872;5.306;2024-01-27T13:31:34;22.80;45.60
27188;DHT22;14708;50.872;5.306;2024-01-27T13:34:00;22.80;45.80
27188;DHT22;14708;50.872;5.306;2024-01-27T13:36:27;22.80;45.70
27188;DHT22;14708;50.872;5.306;2024-01-27T13:38:52;22.80;45.60
27188;DHT22;14708;50.872;5.306;2024-01-27T13:41:18;22.80;45.80
27188;DHT22;14708;50.872;5.306;2024-01-27T13:43:44;22.80;45.70
27188;DHT22;14708;50.872;5.306;2024-01-27T13:46:10;22.90;45.90
27188;DHT22;14708;50.872;5.306;2024-01-27T13:48:36;22.80;45.70
27188;DHT22;14708;50.872;5.306;2024-01-27T13:51:03;22.80;45.30
27188;DHT22;14708;50.872;5.306;2024-01-27T13:53:30;22.90;44.80
27188;DHT22;14708;50.872;5.306;2024-01-27T13:55:56;22.90;44.70
27188;DHT22;14708;50.872;5.306;2024-01-27T13:58:22;22.90;44.50
27188;DHT22;14708;50.872;5.306;2024-01-27T14:00:48;22.90;44.30
27188;DHT22;14708;50.872;5.306;2024-01-27T14:03:14;22.90;44.50
27188;DHT22;14708;50.872;5.306;2024-01-27T14:05:39;22.90;44.20
27188;DHT22;14708;50.872;5.306;2024-01-27T14:08:07;22.90;44.20
27188;DHT22;14708;50.872;5.306;2024-01-27T14:10:36;22.90;44.30
27188;DHT22;14708;50.872;5.306;2024-01-27T14:13:02;22.90;44.30
27188;DHT22;14708;50.872;5.306;2024-01-27T14:15:35;22.90;44.30
27188;DHT22;14708;50.872;5.306;2024-01-27T14:18:01;22.90;43.80
27188;DHT22;14708;50.872;5.306;2024-01-27T14:20:27;22.90;44.00
27188;DHT22;14708;50.872;5.306;2024-01-27T14:22:56;23.00;44.10
27188;DHT22;14708;50.872;5.306;2024-01-27T14:25:23;22.90;43.90
27188;DHT22;14708;50.872;5.306;2024-01-27T14:27:49;22.90;43.70
27188;DHT22;14708;50.872;5.306;2024-01-27T14:30:15;22.90;44.00
27188;DHT22;14708;50.872;5.306;2024-01-27T14:32:40;23.00;44.00
27188;DHT22;14708;50.872;5.306;2024-01-27T14:35:06;23.00;44.20
27188;DHT22;14708;50.872;5.306;2024-01-27T14:37:33;22.90;43.70
27188;DHT22;14708;50.872;5.306;2024-01-27T14:39:59;22.90;43.80
27188;DHT22;14708;50.872;5.306;2024-01-27T14:42:25;22.90;43.70
27188;DHT22;14708;50.872;5.306;2024-01-27T14:44:51;22.90;43.50
27188;DHT22;14708;50.872;5.306;2024-01-27T14:47:21;22.90;43.90
27188;DHT22;14708;50.872;5.306;2024-01-27T14:49:47;22.90;43.90
27188;DHT22;14708;50.872;5.306;2024-01-27T14:52:12;22.80;43.50
27188;DHT22;14708;50.872;5.306;2024-01-27T14:54:38;22.90;43.80
27188;DHT22;14708;50.872;5.306;2024-01-27T14:57:05;22.80;43.90
27188;DHT22;14708;50.872;5.306;2024-01-27T14:59:35;22.90;43.80
27188;DHT22;14708;50.872;5.306;2024-01-27T15:02:01;22.90;44.00
27188;DHT22;14708;50.872;5.306;2024-01-27T15:04:27;22.80;43.90
27188;DHT22;14708;50.872;5.306;2024-01-27T15:06:55;22.90;44.00
27188;DHT22;14708;50.872;5.306;2024-01-27T15:09:21;22.90;43.90
27188;DHT22;14708;50.872;5.306;2024-01-27T15:11:48;22.90;44.40
27188;DHT22;14708;50.872;5.306;2024-01-27T15:14:15;22.80;44.20
27188;DHT22;14708;50.872;5.306;2024-01-27T15:16:44;22.80;44.00
27188;DHT22;14708;50.872;5.306;2024-01-27T15:19:10;22.90;44.00
27188;DHT22;14708;50.872;5.306;2024-01-27T15:21:36;22.80;44.20
27188;DHT22;14708;50.872;5.306;2024-01-27T15:24:02;22.90;44.50
27188;DHT22;14708;50.872;5.306;2024-01-27T15:26:28;22.90;44.60